Time;durP1;ratioP1;P1;durP2;ratioP2;P2;SDS_P1;SDS_P2;PMS_P1;PMS_P2;Temp;Humidity;BMP_temperature;BMP_pressure;BME280_temperature;BME280_humidity;BME280_pressure;Samples;Min_cycle;Max_cycle;Signal;HPM_P1;HPM_P2
2021/06/17 00:00:21;;;;;;;4.77;4.37;;;27.10;93.90;;;;;;5030722;28;20792;-70
2021/06/17 00:02:49;;;;;;;3.57;3.37;;;27.10;93.90;;;;;;5030438;28;20470;-69
2021/06/17 00:05:18;;;;;;;4.00;3.63;;;27.00;93.90;;;;;;5028340;28;20467;-69
2021/06/17 00:07:45;;;;;;;3.83;3.63;;;27.00;93.90;;;;;;5030796;28;20905;-69
2021/06/17 00:10:18;;;;;;;4.13;3.83;;;27.00;94.00;;;;;;5030843;28;20454;-69
2021/06/17 00:12:46;;;;;;;4.43;4.03;;;27.00;94.00;;;;;;5030633;28;20470;-69
2021/06/17 00:15:14;;;;;;;3.80;3.50;;;27.00;94.10;;;;;;5031255;28;20440;-69
2021/06/17 00:17:41;;;;;;;3.90;3.70;;;26.90;94.10;;;;;;5031091;28;20448;-69
2021/06/17 00:20:09;;;;;;;3.87;3.60;;;26.90;94.10;;;;;;5030593;28;20465;-69
2021/06/17 00:22:36;;;;;;;4.10;3.80;;;26.90;94.20;;;;;;5030778;28;20529;-69
2021/06/17 00:25:03;;;;;;;3.57;3.33;;;26.90;94.20;;;;;;5029525;28;20489;-69
2021/06/17 00:27:30;;;;;;;4.40;4.10;;;26.90;94.20;;;;;;5030449;28;20900;-69
2021/06/17 00:29:58;;;;;;;3.93;3.63;;;26.90;94.30;;;;;;5030793;28;20456;-69
2021/06/17 00:32:25;;;;;;;4.50;4.10;;;26.80;94.20;;;;;;5029137;28;20765;-69
2021/06/17 00:34:52;;;;;;;4.00;3.53;;;26.80;94.30;;;;;;5027342;28;20981;-69
2021/06/17 00:37:18;;;;;;;4.33;4.03;;;26.80;94.30;;;;;;5030218;28;20466;-69
2021/06/17 00:39:45;;;;;;;4.50;4.20;;;26.80;94.30;;;;;;5031213;28;20453;-69
2021/06/17 00:42:12;;;;;;;5.10;4.80;;;26.80;94.30;;;;;;5031018;28;20469;-69
2021/06/17 00:44:39;;;;;;;4.20;3.80;;;26.80;94.40;;;;;;5029730;28;20472;-68
2021/06/17 00:47:07;;;;;;;4.17;3.87;;;26.70;94.30;;;;;;5030660;28;20925;-68
2021/06/17 00:49:34;;;;;;;4.40;4.00;;;26.70;94.40;;;;;;5030791;28;20464;-69
2021/06/17 00:52:02;;;;;;;5.57;4.20;;;26.70;94.40;;;;;;5030847;28;20786;-68
2021/06/17 00:54:32;;;;;;;3.80;3.53;;;26.70;94.40;;;;;;5030325;28;20786;-68
2021/06/17 00:56:59;;;;;;;7.10;4.13;;;26.70;94.80;;;;;;5030825;28;20544;-69
2021/06/17 00:59:26;;;;;;;4.10;3.80;;;26.60;94.50;;;;;;5030332;28;20472;-69
2021/06/17 01:01:53;;;;;;;4.57;4.23;;;26.60;94.50;;;;;;5029594;28;20467;-68
2021/06/17 01:04:21;;;;;;;5.20;4.80;;;26.60;94.60;;;;;;5030404;28;20476;-68
2021/06/17 01:06:48;;;;;;;4.20;3.90;;;26.60;94.60;;;;;;5030177;28;20460;-68
2021/06/17 01:09:24;;;;;;;4.30;4.00;;;26.60;94.60;;;;;;5030633;28;20459;-68
2021/06/17 01:11:58;;;;;;;4.07;3.77;;;26.60;94.70;;;;;;5030295;28;20490;-68
2021/06/17 01:14:30;;;;;;;4.60;4.30;;;26.50;94.70;;;;;;5030170;28;20446;-68
2021/06/17 01:17:03;;;;;;;4.30;4.00;;;26.50;94.70;;;;;;5030563;28;20450;-68
2021/06/17 01:19:48;;;;;;;5.03;4.63;;;26.50;94.80;;;;;;5029951;28;20443;-68
2021/06/17 01:22:22;;;;;;;4.47;4.17;;;26.50;94.80;;;;;;5026696;28;20902;-68
2021/06/17 01:25:01;;;;;;;4.50;4.20;;;26.50;94.80;;;;;;5030068;28;20483;-68
2021/06/17 01:27:57;;;;;;;5.07;4.67;;;26.40;94.90;;;;;;5030644;28;20448;-68
2021/06/17 01:30:27;;;;;;;3.90;3.60;;;26.40;94.90;;;;;;5029138;28;20457;-68
2021/06/17 01:32:57;;;;;;;4.30;4.00;;;26.40;95.00;;;;;;5030044;28;20457;-68
2021/06/17 01:35:26;;;;;;;4.20;3.50;;;26.40;95.00;;;;;;5027797;28;20439;-69
2021/06/17 01:37:56;;;;;;;4.77;4.37;;;26.40;95.10;;;;;;5019927;28;20838;-68
2021/06/17 01:40:23;;;;;;;3.90;3.60;;;26.40;95.20;;;;;;5025030;28;20824;-68
2021/06/17 01:42:51;;;;;;;5.57;5.17;;;26.40;95.20;;;;;;5034659;28;20851;-69
2021/06/17 01:45:18;;;;;;;4.40;4.10;;;26.30;95.20;;;;;;5035067;28;20491;-68
2021/06/17 01:47:47;;;;;;;4.33;4.03;;;26.30;95.30;;;;;;5034240;28;20462;-68
2021/06/17 01:50:15;;;;;;;4.50;3.57;;;26.30;95.40;;;;;;5034274;28;20453;-68
2021/06/17 01:52:43;;;;;;;4.80;4.40;;;26.30;95.50;;;;;;5034964;28;20825;-68
2021/06/17 01:55:11;;;;;;;4.37;4.07;;;26.20;95.40;;;;;;5034267;28;20452;-69
2021/06/17 01:57:40;;;;;;;4.50;4.10;;;26.20;95.80;;;;;;5034479;28;20448;-68
2021/06/17 02:00:08;;;;;;;4.53;4.23;;;26.20;95.50;;;;;;5033915;28;20438;-69
2021/06/17 02:02:36;;;;;;;5.03;4.30;;;26.20;95.60;;;;;;5034144;28;20469;-69
2021/06/17 02:05:05;;;;;;;4.73;4.33;;;26.10;95.60;;;;;;5032153;28;20474;-69
2021/06/17 02:07:33;;;;;;;5.07;4.17;;;26.10;95.60;;;;;;5034553;28;20448;-69
2021/06/17 02:10:01;;;;;;;4.70;4.30;;;26.10;95.70;;;;;;5032658;28;20463;-69
2021/06/17 02:12:28;;;;;;;4.20;3.90;;;26.10;95.70;;;;;;5034493;28;20446;-68
2021/06/17 02:14:55;;;;;;;5.67;5.27;;;26.10;95.70;;;;;;5034415;28;20440;-69
2021/06/17 02:17:23;;;;;;;5.00;4.60;;;26.10;95.70;;;;;;5033682;28;20463;-68
2021/06/17 02:19:50;;;;;;;4.37;4.07;;;26.10;95.80;;;;;;5033119;28;20459;-68
2021/06/17 02:22:20;;;;;;;5.03;4.63;;;26.00;95.70;;;;;;5032974;28;20852;-68
2021/06/17 02:24:56;;;;;;;4.73;4.37;;;26.00;95.70;;;;;;5033145;28;20484;-68
2021/06/17 02:27:27;;;;;;;5.10;4.70;;;26.00;95.80;;;;;;5028553;28;20538;-69
2021/06/17 02:29:57;;;;;;;4.80;4.43;;;26.00;95.80;;;;;;5032729;28;20475;-69
2021/06/17 02:32:25;;;;;;;4.73;4.20;;;26.00;96.20;;;;;;5031719;28;20465;-68
2021/06/17 02:34:53;;;;;;;4.60;4.20;;;25.90;95.90;;;;;;5032273;28;20489;-69
2021/06/17 02:37:22;;;;;;;4.97;3.93;;;25.90;96.00;;;;;;5032804;28;20471;-69
2021/06/17 02:39:50;;;;;;;5.30;4.90;;;25.90;96.00;;;;;;5032644;28;20459;-68
2021/06/17 02:42:20;;;;;;;5.30;4.80;;;25.90;96.10;;;;;;5031268;28;20470;-69
2021/06/17 02:44:49;;;;;;;5.10;4.60;;;25.90;96.10;;;;;;5032506;28;20508;-68
2021/06/17 02:47:16;;;;;;;4.77;4.27;;;25.90;96.10;;;;;;5032238;28;20450;-69
2021/06/17 02:49:43;;;;;;;4.43;4.13;;;25.90;96.20;;;;;;5029282;28;20475;-68
2021/06/17 02:52:10;;;;;;;6.63;4.93;;;25.80;96.20;;;;;;5032800;28;20911;-68
2021/06/17 02:54:38;;;;;;;5.40;4.43;;;25.80;96.20;;;;;;5031446;28;20454;-68
2021/06/17 02:57:10;;;;;;;4.57;4.27;;;25.80;96.20;;;;;;5032618;28;20907;-69
2021/06/17 02:59:51;;;;;;;5.10;4.70;;;25.80;96.30;;;;;;5031985;28;20907;-69
2021/06/17 03:02:22;;;;;;;5.43;5.03;;;25.70;96.30;;;;;;5029190;28;20481;-69
2021/06/17 03:04:52;;;;;;;5.27;4.87;;;25.80;96.30;;;;;;5030366;28;20471;-69
2021/06/17 03:07:23;;;;;;;4.43;4.13;;;25.70;96.30;;;;;;5032112;28;20533;-69
2021/06/17 03:09:57;;;;;;;5.07;4.60;;;25.70;96.40;;;;;;5032171;28;20442;-68
2021/06/17 03:12:27;;;;;;;5.23;4.80;;;25.70;96.50;;;;;;5031248;28;20426;-68
2021/06/17 03:14:58;;;;;;;4.97;4.57;;;25.70;96.50;;;;;;5032249;28;21273;-68
2021/06/17 03:17:25;;;;;;;4.60;4.30;;;25.70;96.60;;;;;;5032124;28;20461;-68
2021/06/17 03:19:56;;;;;;;4.70;4.20;;;25.70;96.60;;;;;;5031724;28;20461;-69
2021/06/17 03:22:25;;;;;;;4.70;4.27;;;25.60;96.60;;;;;;5032564;28;20454;-69
2021/06/17 03:24:56;;;;;;;5.50;4.73;;;25.60;96.70;;;;;;5031823;28;20490;-70
2021/06/17 03:27:25;;;;;;;5.13;4.73;;;25.60;96.70;;;;;;5031903;28;20890;-71
2021/06/17 03:29:53;;;;;;;4.50;4.20;;;25.60;96.80;;;;;;5031278;28;20450;-70
2021/06/17 03:32:22;;;;;;;5.40;4.90;;;25.60;96.80;;;;;;5030489;28;20986;-71
2021/06/17 03:34:50;;;;;;;4.90;4.43;;;25.50;96.80;;;;;;5031128;28;20964;-70
2021/06/17 03:37:20;;;;;;;4.90;4.60;;;25.50;96.80;;;;;;5031183;28;20466;-70
2021/06/17 03:39:48;;;;;;;4.37;3.93;;;25.50;96.90;;;;;;5031147;28;20450;-70
2021/06/17 03:42:17;;;;;;;4.63;4.33;;;25.50;96.90;;;;;;5025689;28;20474;-71
2021/06/17 03:44:44;;;;;;;7.30;4.67;;;25.50;96.90;;;;;;5032110;28;20946;-70
2021/06/17 03:47:12;;;;;;;5.00;4.30;;;25.50;96.90;;;;;;5031636;28;20438;-70
2021/06/17 03:49:40;;;;;;;4.60;4.30;;;25.50;96.90;;;;;;5031263;28;20462;-70
2021/06/17 03:52:08;;;;;;;5.13;4.80;;;25.50;97.00;;;;;;5031688;28;20468;-70
2021/06/17 03:54:35;;;;;;;5.33;4.83;;;25.40;97.00;;;;;;5030832;28;20466;-71
2021/06/17 03:57:04;;;;;;;4.80;4.50;;;25.40;97.00;;;;;;5031894;28;20662;-70
2021/06/17 03:59:37;;;;;;;4.73;4.40;;;25.40;97.10;;;;;;5030041;28;20450;-71
2021/06/17 04:02:05;;;;;;;4.80;4.40;;;25.40;97.10;;;;;;5031237;28;20443;-70
2021/06/17 04:04:32;;;;;;;4.90;4.50;;;25.40;97.10;;;;;;5030119;28;20485;-70
2021/06/17 04:07:01;;;;;;;4.30;4.00;;;25.40;97.20;;;;;;5030311;28;20458;-70
2021/06/17 04:09:31;;;;;;;4.67;4.27;;;25.30;97.30;;;;;;5031054;28;20449;-70
2021/06/17 04:12:01;;;;;;;4.90;4.50;;;25.30;97.30;;;;;;5031512;28;20477;-70
2021/06/17 04:14:30;;;;;;;4.47;4.17;;;25.30;97.40;;;;;;5031026;28;20451;-70
2021/06/17 04:16:58;;;;;;;5.13;4.73;;;25.30;97.40;;;;;;5030781;28;20446;-70
2021/06/17 04:19:28;;;;;;;4.70;4.30;;;25.30;97.50;;;;;;5030832;28;20926;-70
2021/06/17 04:21:58;;;;;;;5.37;4.97;;;25.30;97.50;;;;;;5030761;28;20453;-70
2021/06/17 04:24:26;;;;;;;4.93;4.53;;;25.30;97.60;;;;;;5030321;28;20834;-70
2021/06/17 04:26:54;;;;;;;4.20;3.90;;;25.30;97.60;;;;;;5031000;28;20977;-70
2021/06/17 04:29:22;;;;;;;5.40;5.00;;;25.30;97.70;;;;;;5030606;28;20480;-70
2021/06/17 04:31:51;;;;;;;5.87;5.27;;;25.30;97.70;;;;;;5021558;28;20461;-70
2021/06/17 04:34:19;;;;;;;5.30;4.90;;;25.20;97.70;;;;;;5030300;28;20478;-70
2021/06/17 04:36:47;;;;;;;4.80;4.50;;;25.20;97.80;;;;;;5030785;28;20442;-70
2021/06/17 04:39:14;;;;;;;5.30;4.90;;;25.20;97.90;;;;;;5031001;28;20509;-70
2021/06/17 04:41:43;;;;;;;5.27;4.80;;;25.20;97.90;;;;;;5030759;28;20469;-70
2021/06/17 04:44:10;;;;;;;4.80;4.50;;;25.20;97.90;;;;;;5030747;28;20500;-70
2021/06/17 04:46:37;;;;;;;4.50;4.20;;;25.20;98.00;;;;;;5030430;28;20474;-70
2021/06/17 04:49:04;;;;;;;4.97;4.47;;;25.20;98.10;;;;;;5030395;28;20472;-70
2021/06/17 04:51:36;;;;;;;5.00;4.60;;;25.20;98.10;;;;;;5030923;28;20915;-70
2021/06/17 04:54:05;;;;;;;4.80;4.30;;;25.10;98.00;;;;;;5031077;28;20442;-70
2021/06/17 04:56:32;;;;;;;5.40;5.00;;;25.20;98.10;;;;;;5031072;28;20516;-70
2021/06/17 04:58:58;;;;;;;5.43;5.03;;;25.20;98.00;;;;;;5025835;28;20927;-69
2021/06/17 05:01:25;;;;;;;5.00;4.60;;;25.20;98.10;;;;;;5028485;28;20780;-70
2021/06/17 05:03:52;;;;;;;4.37;4.07;;;25.10;98.00;;;;;;5030451;28;20536;-69
2021/06/17 05:06:19;;;;;;;5.07;4.70;;;25.10;98.00;;;;;;5030508;28;20481;-69
2021/06/17 05:11:32;;;;;;;5.03;4.53;;;25.10;98.00;;;;;;5034445;28;20425;-69
2021/06/17 05:13:58;;;;;;;5.30;4.80;;;25.10;98.10;;;;;;5034315;28;20454;-69
2021/06/17 05:16:26;;;;;;;5.20;4.80;;;25.10;98.10;;;;;;5033878;28;20442;-71
2021/06/17 05:18:52;;;;;;;5.20;4.70;;;25.10;98.20;;;;;;5028570;28;20473;-69
2021/06/17 05:21:19;;;;;;;5.03;4.63;;;25.10;98.10;;;;;;5033536;28;20466;-70
2021/06/17 05:23:47;;;;;;;4.63;4.23;;;25.10;98.10;;;;;;5034050;28;20530;-70
2021/06/17 05:26:14;;;;;;;4.33;4.03;;;25.20;98.00;;;;;;5033872;28;20512;-69
2021/06/17 05:28:40;;;;;;;5.27;4.87;;;25.20;97.90;;;;;;5033588;28;20466;-70
2021/06/17 05:31:09;;;;;;;4.67;4.27;;;25.30;98.00;;;;;;5034321;28;20445;-71
2021/06/17 05:33:36;;;;;;;5.73;4.47;;;25.50;97.40;;;;;;5033266;28;20490;-70
2021/06/17 05:36:04;;;;;;;4.83;4.43;;;25.70;96.90;;;;;;5033174;28;20985;-70
2021/06/17 05:38:33;;;;;;;4.30;3.90;;;25.80;96.50;;;;;;5033873;28;20443;-70
2021/06/17 05:41:01;;;;;;;4.03;3.73;;;26.00;96.00;;;;;;5034171;28;21094;-70
2021/06/17 05:43:28;;;;;;;4.20;3.90;;;26.10;95.50;;;;;;5033389;28;20459;-69
2021/06/17 05:45:55;;;;;;;4.00;3.70;;;26.30;95.10;;;;;;5033834;28;20483;-69
2021/06/17 05:48:22;;;;;;;4.10;3.80;;;26.40;94.60;;;;;;5033834;28;20804;-70
2021/06/17 05:50:49;;;;;;;4.70;4.30;;;26.60;94.20;;;;;;5033795;28;20448;-70
2021/06/17 05:53:16;;;;;;;5.60;4.37;;;26.70;93.80;;;;;;5028506;28;20472;-70
2021/06/17 05:55:43;;;;;;;3.77;3.47;;;26.80;93.30;;;;;;5033133;28;20504;-70
2021/06/17 05:58:13;;;;;;;4.53;3.60;;;26.90;93.00;;;;;;5033394;28;20454;-70
2021/06/17 06:00:39;;;;;;;4.10;3.80;;;27.00;92.70;;;;;;5031313;28;20466;-69
2021/06/17 06:03:06;;;;;;;4.10;3.80;;;27.20;92.40;;;;;;5033438;28;20442;-70
2021/06/17 06:05:33;;;;;;;4.00;3.70;;;27.20;92.10;;;;;;5031378;28;21257;-70
2021/06/17 06:08:02;;;;;;;4.13;3.83;;;27.30;91.90;;;;;;5033362;28;20465;-70
2021/06/17 06:10:29;;;;;;;4.50;4.10;;;27.30;91.60;;;;;;5033331;28;20447;-70
2021/06/17 06:12:56;;;;;;;4.10;3.80;;;27.40;91.40;;;;;;5032926;28;20900;-70
2021/06/17 06:15:27;;;;;;;4.17;3.63;;;27.50;91.20;;;;;;5028597;28;20474;-70
2021/06/17 06:17:53;;;;;;;4.17;3.77;;;27.60;90.90;;;;;;5027069;28;21002;-71
2021/06/17 06:20:20;;;;;;;4.27;3.97;;;27.70;90.80;;;;;;5027713;28;20516;-70
2021/06/17 06:22:47;;;;;;;3.93;3.53;;;27.80;90.50;;;;;;5032271;28;20439;-70
2021/06/17 06:25:13;;;;;;;3.90;3.60;;;27.90;90.30;;;;;;5032848;28;20471;-71
2021/06/17 06:27:41;;;;;;;3.73;3.43;;;28.00;90.10;;;;;;5032932;28;20453;-70
2021/06/17 06:30:09;;;;;;;4.60;3.30;;;28.10;89.90;;;;;;5032758;28;20469;-70
2021/06/17 06:32:37;;;;;;;5.23;3.87;;;28.20;89.60;;;;;;5032215;28;20776;-70
2021/06/17 06:35:06;;;;;;;4.00;3.70;;;28.30;89.30;;;;;;5032412;28;21036;-70
2021/06/17 06:37:32;;;;;;;3.00;2.77;;;28.30;88.80;;;;;;5032702;28;20580;-71
2021/06/17 06:39:59;;;;;;;3.30;3.00;;;28.40;88.70;;;;;;5032657;28;20446;-70
2021/06/17 06:42:26;;;;;;;3.93;3.63;;;28.50;88.40;;;;;;5032036;28;20454;-71
2021/06/17 06:44:52;;;;;;;3.63;3.33;;;28.50;88.00;;;;;;5013475;28;20440;-70
2021/06/17 06:47:19;;;;;;;4.00;3.60;;;28.60;87.50;;;;;;5028598;28;20442;-70
2021/06/17 06:49:47;;;;;;;3.00;2.80;;;28.70;88.10;;;;;;5032548;28;20515;-70
2021/06/17 06:52:14;;;;;;;3.47;3.17;;;28.70;87.00;;;;;;5032069;28;20466;-71
2021/06/17 06:54:40;;;;;;;3.90;3.60;;;28.80;86.70;;;;;;5032277;28;20446;-70
2021/06/17 06:57:07;;;;;;;3.23;2.93;;;28.90;86.30;;;;;;5032698;28;20504;-71
2021/06/17 06:59:34;;;;;;;3.53;3.23;;;29.00;85.90;;;;;;5021304;28;20518;-70
2021/06/17 07:02:00;;;;;;;4.10;3.70;;;29.10;85.70;;;;;;5029911;28;20454;-70
2021/06/17 07:04:27;;;;;;;3.33;3.13;;;29.10;85.20;;;;;;5023253;28;20504;-69
2021/06/17 07:06:55;;;;;;;3.57;3.30;;;29.20;85.30;;;;;;5026784;28;20505;-69
2021/06/17 07:09:22;;;;;;;3.30;3.00;;;29.20;84.80;;;;;;5024463;28;20463;-70
2021/06/17 07:11:49;;;;;;;3.20;2.90;;;29.30;84.50;;;;;;5031832;28;20516;-70
2021/06/17 07:14:16;;;;;;;4.50;3.33;;;29.40;84.30;;;;;;5032982;28;20855;-70
2021/06/17 07:16:43;;;;;;;5.33;3.00;;;29.50;83.90;;;;;;5032165;28;20456;-69
2021/06/17 07:19:11;;;;;;;2.90;2.70;;;29.60;83.50;;;;;;5032805;28;20455;-70
2021/06/17 07:21:38;;;;;;;5.40;3.60;;;29.70;83.10;;;;;;5032808;28;20462;-71
2021/06/17 07:24:07;;;;;;;3.17;2.97;;;29.70;82.70;;;;;;5032128;28;20466;-70
2021/06/17 07:26:33;;;;;;;3.10;2.90;;;29.80;82.50;;;;;;5015715;28;20477;-71
2021/06/17 07:29:01;;;;;;;4.10;3.70;;;29.90;82.30;;;;;;5018637;28;20453;-72
2021/06/17 07:31:27;;;;;;;3.67;3.00;;;29.80;81.80;;;;;;5031339;28;20445;-70
2021/06/17 07:33:54;;;;;;;3.50;3.20;;;30.00;81.70;;;;;;5030833;28;20498;-71
2021/06/17 07:36:21;;;;;;;3.97;3.10;;;30.20;81.50;;;;;;5030657;28;20456;-70
2021/06/17 07:38:47;;;;;;;3.10;2.90;;;30.20;81.20;;;;;;5030509;28;21007;-70
2021/06/17 07:41:16;;;;;;;3.50;3.23;;;30.20;80.80;;;;;;5031491;28;20446;-70
2021/06/17 07:43:42;;;;;;;3.20;2.90;;;30.30;80.60;;;;;;5030215;28;20870;-70
2021/06/17 07:46:10;;;;;;;3.63;3.33;;;30.40;80.30;;;;;;5031722;28;20480;-71
2021/06/17 07:48:38;;;;;;;3.10;2.90;;;30.50;80.00;;;;;;5031587;28;20445;-70
2021/06/17 07:51:05;;;;;;;3.87;3.23;;;30.50;79.90;;;;;;5031096;28;20450;-71
2021/06/17 07:53:32;;;;;;;2.97;2.77;;;30.60;79.40;;;;;;5030736;28;20524;-71
2021/06/17 07:55:58;;;;;;;3.17;2.80;;;30.60;79.00;;;;;;5027174;28;21004;-70
2021/06/17 07:58:26;;;;;;;3.50;3.20;;;30.70;79.00;;;;;;5030750;28;20470;-70
2021/06/17 08:00:53;;;;;;;3.40;3.20;;;30.80;78.70;;;;;;5031898;28;20445;-71
2021/06/17 08:03:20;;;;;;;3.30;3.00;;;30.90;77.40;;;;;;5032236;28;20485;-70
2021/06/17 08:05:46;;;;;;;3.30;3.00;;;30.90;77.40;;;;;;5031333;28;20482;-69
2021/06/17 08:08:13;;;;;;;4.97;2.90;;;30.90;77.80;;;;;;5028959;28;20465;-70
2021/06/17 08:10:41;;;;;;;3.17;2.87;;;31.00;77.70;;;;;;5031086;28;20536;-70
2021/06/17 08:13:08;;;;;;;3.07;2.87;;;31.00;77.10;;;;;;5030916;28;20811;-70
2021/06/17 08:15:36;;;;;;;3.50;3.30;;;31.10;77.80;;;;;;5024770;28;20455;-70
2021/06/17 08:18:04;;;;;;;3.67;3.20;;;31.10;76.60;;;;;;5030894;28;20462;-69
2021/06/17 08:20:30;;;;;;;2.70;2.50;;;31.20;76.50;;;;;;5031078;28;20501;-70
2021/06/17 08:22:57;;;;;;;3.53;3.10;;;31.30;76.20;;;;;;5030173;28;20474;-70
2021/06/17 08:25:24;;;;;;;2.53;2.30;;;31.30;76.10;;;;;;5028900;28;20938;-70
2021/06/17 08:27:51;;;;;;;3.40;3.10;;;31.30;75.70;;;;;;5017668;28;20470;-70
2021/06/17 08:30:19;;;;;;;3.40;2.60;;;31.40;75.60;;;;;;5011495;28;20447;-70
2021/06/17 08:32:49;;;;;;;3.53;2.73;;;31.40;75.40;;;;;;5011034;28;20918;-69
2021/06/17 08:35:15;;;;;;;3.40;2.87;;;31.40;75.20;;;;;;5026410;28;20473;-70
2021/06/17 08:37:43;;;;;;;3.10;2.80;;;31.50;74.80;;;;;;5030789;28;20803;-69
2021/06/17 08:40:10;;;;;;;2.90;2.70;;;31.50;74.90;;;;;;5030705;28;21016;-69
2021/06/17 08:42:37;;;;;;;3.27;2.97;;;31.60;74.60;;;;;;5030783;28;20446;-69
2021/06/17 08:45:08;;;;;;;3.43;3.13;;;31.60;74.50;;;;;;5031972;28;20450;-69
2021/06/17 08:47:35;;;;;;;3.07;2.70;;;31.60;74.30;;;;;;5035395;28;20458;-69
2021/06/17 08:50:05;;;;;;;2.80;2.53;;;31.60;74.00;;;;;;5033894;28;20462;-69
2021/06/17 08:52:34;;;;;;;3.10;2.80;;;31.60;74.20;;;;;;5030056;28;20443;-69
2021/06/17 08:55:11;;;;;;;3.57;3.27;;;31.70;74.00;;;;;;5024790;28;20489;-70
2021/06/17 08:57:38;;;;;;;3.60;3.30;;;31.70;73.40;;;;;;5034840;28;20480;-68
2021/06/17 09:00:34;;;;;;;3.50;3.20;;;31.70;73.00;;;;;;5035015;28;20507;-69
2021/06/17 09:03:04;;;;;;;4.03;3.40;;;31.70;73.40;;;;;;5034003;28;20551;-69
2021/06/17 09:05:33;;;;;;;3.53;3.27;;;31.80;73.50;;;;;;5034513;28;20854;-69
2021/06/17 09:08:01;;;;;;;3.90;3.47;;;31.80;72.90;;;;;;5015315;28;20475;-69
2021/06/17 09:10:29;;;;;;;3.10;2.80;;;31.80;73.30;;;;;;5023486;28;20465;-68
2021/06/17 09:12:57;;;;;;;4.73;2.97;;;31.80;72.50;;;;;;5033130;28;20981;-69
2021/06/17 09:15:39;;;;;;;3.13;2.83;;;31.80;72.80;;;;;;5033469;28;20465;-69
2021/06/17 09:18:10;;;;;;;4.30;2.60;;;31.80;72.60;;;;;;5033373;28;20996;-69
2021/06/17 09:20:38;;;;;;;3.90;3.07;;;31.80;72.50;;;;;;5026049;28;20500;-68
2021/06/17 09:23:23;;;;;;;3.90;3.23;;;31.80;72.50;;;;;;5033247;28;21044;-68
2021/06/17 09:25:51;;;;;;;4.00;3.40;;;31.80;71.70;;;;;;5029082;28;20550;-68
2021/06/17 09:28:18;;;;;;;3.00;2.80;;;31.80;72.10;;;;;;5032171;28;20450;-69
2021/06/17 09:30:45;;;;;;;3.50;3.20;;;31.80;72.60;;;;;;5032831;28;20457;-69
2021/06/17 09:33:14;;;;;;;3.40;2.97;;;31.80;72.30;;;;;;5033451;28;20477;-69
2021/06/17 09:36:00;;;;;;;3.70;3.50;;;31.80;72.00;;;;;;5028265;28;20505;-69
2021/06/17 09:38:27;;;;;;;3.60;3.30;;;31.80;70.70;;;;;;5027837;28;20786;-69
2021/06/17 09:40:56;;;;;;;3.17;2.93;;;31.80;70.40;;;;;;5033864;28;20450;-69
2021/06/17 09:43:24;;;;;;;3.63;3.20;;;31.80;71.40;;;;;;5033305;28;20792;-69
2021/06/17 09:45:56;;;;;;;3.93;3.63;;;31.80;71.80;;;;;;5033648;28;20442;-69
2021/06/17 09:48:38;;;;;;;4.70;3.10;;;31.80;70.90;;;;;;5034194;28;20755;-69
2021/06/17 09:51:25;;;;;;;2.90;2.57;;;31.80;70.30;;;;;;5034039;28;20445;-69
2021/06/17 09:53:54;;;;;;;2.80;2.60;;;31.80;70.10;;;;;;5014133;28;20431;-69
2021/06/17 09:56:31;;;;;;;4.53;3.57;;;31.80;70.60;;;;;;5024162;28;20500;-71
2021/06/17 09:58:58;;;;;;;2.90;2.43;;;31.80;69.10;;;;;;5031180;28;20831;-69
2021/06/17 10:01:31;;;;;;;4.10;2.77;;;31.80;69.90;;;;;;5033403;28;20922;-68
2021/06/17 10:04:02;;;;;;;2.93;2.73;;;31.80;69.60;;;;;;5033468;28;20446;-68
2021/06/17 10:06:30;;;;;;;5.70;3.50;;;31.80;69.90;;;;;;5031318;28;20946;-69
2021/06/17 10:08:58;;;;;;;3.67;2.90;;;31.80;70.60;;;;;;5030858;28;20473;-69
2021/06/17 10:11:24;;;;;;;3.27;3.07;;;31.80;70.40;;;;;;5033522;28;20460;-69
2021/06/17 10:13:52;;;;;;;4.30;3.13;;;31.80;70.40;;;;;;5033093;28;20465;-69
2021/06/17 10:16:19;;;;;;;2.90;2.70;;;31.80;70.00;;;;;;5030905;28;20457;-69
2021/06/17 10:18:46;;;;;;;3.37;3.07;;;31.80;70.40;;;;;;5032635;28;20469;-69
2021/06/17 10:21:14;;;;;;;2.97;2.70;;;31.80;70.10;;;;;;5023744;28;20462;-70
2021/06/17 10:23:43;;;;;;;3.43;3.03;;;31.80;69.60;;;;;;5024744;28;20529;-69
2021/06/17 10:26:11;;;;;;;3.50;3.10;;;31.80;69.40;;;;;;5015893;28;20454;-68
2021/06/17 10:28:43;;;;;;;3.00;2.70;;;31.80;70.40;;;;;;5032802;28;20973;-68
2021/06/17 10:31:12;;;;;;;3.27;3.03;;;31.80;70.50;;;;;;5033343;28;20446;-69
2021/06/17 10:33:40;;;;;;;3.03;2.83;;;31.80;70.60;;;;;;5028819;28;20573;-68
2021/06/17 10:36:22;;;;;;;3.33;2.87;;;31.80;71.00;;;;;;5033087;28;20679;-69
2021/06/17 10:39:19;;;;;;;3.20;2.50;;;31.70;70.30;;;;;;5032982;28;20434;-69
2021/06/17 10:42:10;;;;;;;4.00;2.97;;;31.70;70.00;;;;;;5032393;28;20812;-69
2021/06/17 10:44:38;;;;;;;3.03;2.73;;;31.70;69.80;;;;;;5032258;28;20443;-68
2021/06/17 10:47:05;;;;;;;3.23;2.70;;;31.70;69.70;;;;;;5023947;28;20553;-69
2021/06/17 10:50:01;;;;;;;3.77;3.37;;;31.70;69.70;;;;;;5030105;28;20446;-69
2021/06/17 10:52:30;;;;;;;4.80;2.63;;;31.60;69.30;;;;;;5031824;28;20438;-68
2021/06/17 10:54:58;;;;;;;5.40;2.73;;;31.70;69.90;;;;;;5032527;28;20442;-68
2021/06/17 10:57:51;;;;;;;4.37;3.47;;;31.70;69.20;;;;;;5031903;28;20454;-68
2021/06/17 11:00:43;;;;;;;3.47;2.53;;;31.60;69.40;;;;;;5013309;28;20432;-69
2021/06/17 11:03:41;;;;;;;3.37;3.07;;;31.60;69.00;;;;;;5027055;28;20518;-69
2021/06/17 11:06:07;;;;;;;3.90;2.70;;;31.60;69.20;;;;;;5029514;28;20466;-69
2021/06/17 11:08:34;;;;;;;4.20;2.40;;;31.60;68.80;;;;;;5032157;28;20886;-69
2021/06/17 11:11:04;;;;;;;4.63;3.57;;;31.70;68.60;;;;;;5032579;28;20442;-69
2021/06/17 11:13:33;;;;;;;2.83;2.63;;;31.70;69.10;;;;;;5031606;28;20431;-68
2021/06/17 11:16:01;;;;;;;3.10;2.50;;;31.70;68.70;;;;;;5033461;28;20443;-68
2021/06/17 11:19:05;;;;;;;3.40;3.10;;;31.70;68.50;;;;;;5033540;28;20534;-69
2021/06/17 11:21:46;;;;;;;2.90;2.70;;;31.70;68.00;;;;;;5011290;28;20808;-69
2021/06/17 11:24:28;;;;;;;3.57;3.27;;;31.70;68.00;;;;;;5033056;28;20465;-69
2021/06/17 11:26:56;;;;;;;2.63;2.43;;;31.70;67.90;;;;;;5031871;28;20465;-68
2021/06/17 11:29:59;;;;;;;2.50;2.30;;;31.70;67.40;;;;;;5033194;28;20446;-68
2021/06/17 11:32:29;;;;;;;3.13;2.93;;;31.70;67.10;;;;;;5033063;28;20438;-68
2021/06/17 11:34:56;;;;;;;2.33;2.13;;;31.70;67.20;;;;;;5031320;28;20490;-68
2021/06/17 11:37:23;;;;;;;2.50;2.30;;;31.70;67.50;;;;;;5031852;28;20450;-69
2021/06/17 11:39:50;;;;;;;2.60;2.40;;;31.70;67.10;;;;;;5031086;28;20532;-69
2021/06/17 11:42:20;;;;;;;3.30;2.77;;;31.70;67.50;;;;;;5032102;28;20446;-69
2021/06/17 11:44:59;;;;;;;2.77;2.57;;;31.70;67.80;;;;;;5031514;28;20458;-69
2021/06/17 11:47:26;;;;;;;3.67;2.53;;;31.70;67.00;;;;;;5031191;28;20592;-70
2021/06/17 11:49:52;;;;;;;3.13;2.50;;;31.70;66.90;;;;;;5031694;28;20450;-69
2021/06/17 11:52:20;;;;;;;2.40;2.20;;;31.70;67.00;;;;;;5031415;28;20529;-70
2021/06/17 11:54:49;;;;;;;2.53;2.33;;;31.70;67.00;;;;;;5031349;28;20454;-69
2021/06/17 11:57:25;;;;;;;2.40;2.30;;;31.70;66.80;;;;;;5026552;28;20474;-70
2021/06/17 11:59:52;;;;;;;5.50;2.67;;;31.70;66.90;;;;;;5030703;28;20544;-69
2021/06/17 12:02:23;;;;;;;2.60;2.40;;;31.70;66.20;;;;;;5030677;28;20512;-70
2021/06/17 12:04:56;;;;;;;3.30;3.00;;;31.70;66.20;;;;;;5030632;28;20525;-69
2021/06/17 12:07:27;;;;;;;2.27;2.07;;;31.70;66.40;;;;;;5030599;28;20466;-69
2021/06/17 12:09:55;;;;;;;2.43;2.23;;;31.70;66.20;;;;;;5031211;28;20512;-69
2021/06/17 12:12:26;;;;;;;2.43;2.17;;;31.60;66.50;;;;;;5028072;28;20454;-69
2021/06/17 12:14:54;;;;;;;3.00;2.50;;;31.60;66.70;;;;;;5017828;28;20438;-68
2021/06/17 12:17:36;;;;;;;2.60;2.40;;;31.60;65.90;;;;;;5026633;28;20493;-69
2021/06/17 12:20:11;;;;;;;3.27;2.50;;;31.60;66.20;;;;;;5030808;28;20500;-69
2021/06/17 12:22:38;;;;;;;2.90;2.60;;;31.60;66.10;;;;;;5031289;28;20461;-69
2021/06/17 12:25:05;;;;;;;3.57;2.30;;;31.60;65.80;;;;;;5029944;28;20536;-69
2021/06/17 12:27:34;;;;;;;2.80;2.60;;;31.60;66.20;;;;;;5030683;28;20478;-69
2021/06/17 12:30:33;;;;;;;2.87;2.23;;;31.60;65.90;;;;;;5031104;28;20442;-69
2021/06/17 12:33:09;;;;;;;5.17;2.43;;;31.60;66.10;;;;;;5030167;28;20443;-69
2021/06/17 12:35:37;;;;;;;2.27;2.07;;;31.60;66.70;;;;;;5026816;28;20438;-68
2021/06/17 12:38:04;;;;;;;2.77;2.57;;;31.60;66.00;;;;;;5031830;28;20858;-68
2021/06/17 12:40:37;;;;;;;2.50;2.30;;;31.60;65.40;;;;;;5031110;28;20459;-68
2021/06/17 12:43:14;;;;;;;2.33;2.13;;;31.60;65.30;;;;;;5031148;28;20450;-68
2021/06/17 12:45:42;;;;;;;2.23;2.03;;;31.60;65.60;;;;;;5031031;28;20970;-67
2021/06/17 12:48:17;;;;;;;3.20;2.40;;;31.60;65.90;;;;;;5027087;28;20966;-68
2021/06/17 12:53:45;;;;;;;4.83;2.70;;;31.60;65.20;;;;;;5026818;28;20425;-70
2021/06/17 12:56:12;;;;;;;2.33;2.13;;;31.60;64.90;;;;;;5011544;28;20455;-68
2021/06/17 12:58:48;;;;;;;3.33;2.90;;;31.60;65.70;;;;;;5012280;28;20817;-68
2021/06/17 13:01:15;;;;;;;2.60;2.40;;;31.60;66.00;;;;;;5017138;28;20446;-68
2021/06/17 13:03:41;;;;;;;2.90;2.70;;;31.60;64.80;;;;;;5029791;28;20463;-69
2021/06/17 13:06:08;;;;;;;3.73;2.10;;;31.60;65.10;;;;;;5011999;28;20455;-69